Date,TemperatureHighF,TemperatureAvgF,TemperatureLowF,DewpointHighF,DewpointAvgF,DewpointLowF,HumidityHigh,HumidityAvg,HumidityLow,PressureMaxIn,PressureMinIn,WindSpeedMaxMPH,WindSpeedAvgMPH,GustSpeedMaxMPH,PrecipitationSumIn
2013-12-1,46.6,37.9,31.5,35.4,31.0,27.0,84,76,63,30.19,29.96,13,3,13,0.00
2013-12-2,49.8,40.5,32.9,41.9,36.3,30.7,96,85,72,29.96,29.81,6,1,6,0.02
2013-12-3,56.7,43.4,32.9,48.7,41.0,32.7,99,92,72,29.90,29.81,11,2,11,0.02
2013-12-4,65.5,53.6,42.4,55.6,49.5,41.7,99,87,69,29.94,29.77,19,5,19,0.00
2013-12-5,60.6,50.7,34.2,60.3,48.9,34.0,99,94,78,30.12,29.78,21,5,21,0.74
2013-12-6,34.0,30.6,25.9,33.8,30.4,25.7,99,99,99,30.33,30.08,10,1,10,0.19
2013-12-7,27.1,22.8,14.7,25.7,18.9,11.8,99,85,68,30.57,30.32,0,0,0,0.04
2013-12-8,31.5,23.7,14.5,31.3,21.7,11.8,99,92,85,30.54,30.00,13,3,13,0.00
2013-12-9,35.8,32.3,28.0,35.1,30.1,23.2,99,92,81,30.20,29.97,21,6,21,0.05
2013-12-10,27.9,24.3,20.3,18.1,16.2,14.4,78,71,61,30.31,30.10,23,8,23,0.01
2013-12-11,35.8,23.4,13.3,22.8,16.6,9.9,88,76,57,30.57,30.23,18,6,18,0.00
2013-12-12,44.4,16.7,10.4,28.2,7.3,1.2,86,67,43,30.50,30.16,17,5,17,0.00
2013-12-13,46.2,27.3,18.7,22.3,16.3,9.0,68,63,54,30.29,29.99,17,4,17,0.02
2013-12-14,39.2,35.4,30.4,39.0,35.2,29.5,99,99,97,30.08,29.69,15,6,15,0.51
2013-12-15,34.7,26.8,24.3,34.5,23.6,16.3,99,88,69,30.08,29.75,21,6,22,0.01
2013-12-16,63.3,25.1,22.8,48.2,23.1,19.6,99,92,81,30.15,29.79,15,3,15,0.00
2013-12-17,60.6,29.3,26.6,34.2,27.3,23.7,99,92,79,30.12,29.81,19,6,19,0.00
2013-12-18,32.4,26.6,22.3,25.0,21.7,18.1,91,82,69,30.39,30.06,16,5,16,0.00
2013-12-19,55.0,45.6,20.7,41.4,31.3,12.7,76,57,50,30.54,29.96,23,9,23,0.01
2013-12-20,58.1,51.5,47.1,56.3,44.8,16.5,99,80,50,30.41,29.84,23,8,23,0.12
2013-12-21,65.8,59.4,55.6,63.7,58.5,19.8,99,97,88,30.16,29.47,29,10,29,0.89
2013-12-22,66.2,56.9,47.5,62.6,52.8,14.4,99,87,65,30.33,29.45,34,10,34,0.54
2013-12-23,48.9,33.8,27.9,42.6,29.4,21.0,99,84,72,30.32,29.95,21,7,21,0.04
2013-12-24,27.9,27.3,27.1,21.2,20.8,19.9,78,76,74,30.32,30.29,10,5,10,0.00
2013-12-26,36.7,31.1,24.8,22.3,20.6,18.9,82,66,52,30.34,30.27,19,4,19,0.00
2013-12-27,45.0,36.8,24.8,31.6,26.8,20.1,82,67,58,30.40,30.27,17,6,17,0.00
2013-12-28,52.7,43.3,36.9,35.4,30.4,26.6,72,61,49,30.27,30.01,21,6,21,0.00
2013-12-29,41.7,39.3,34.9,41.4,35.6,27.9,99,88,59,30.02,29.76,23,4,23,0.43
2013-12-30,34.5,27.9,24.4,32.4,23.6,19.6,93,84,74,30.21,29.95,20,4,20,0.00
2013-12-31,27.3,24.5,22.3,20.7,18.5,15.4,90,78,70,30.32,30.11,23,6,23,0.00